Albany, New York
Traffic Map
Current Weather Conditions
Albany, New York
Overcast Light Snow
Overcast
29°
Feels Like: 29°
Wind Chill: 29° Ceiling: 1900
Heat Index: 29° Visibility: 8mi
Dew Point: 24° Wind: 3mph
Humidity: 82% Direction: 10° (N)
Pressure: 30.36in Gusts: 0mph
Raw Report DataKALB 221251Z 01003KT 8SM -SN FEW012 OVC019 M02/M04 A3036 RMK AO2 SNE08B25 SLP283 PCPN VRY LGT AND INTMT P0000 T10171044
Traffic Incident Summary
Active as of:
Severity:
Category:
InformationThere was an issue retrieving the traffic information for this location. Please try a different location or try again shortly.
Advertisements
Track Severe Weather on mobile